Avon, MT

5:40 AM MDT on September 02, 2014 (GMT -0600)
Timberline Drive | Change Station
CLOSE
Current Station
Personal Weather Station
Location: Gold Creek, MT
Elevation: 4872 ft
Nearby Weather Stations

Elev 4872 ft 46.52 °N, 112.98 °W | Updated 4 minutes ago

Clear
Clear
38.8 °F
Feels Like 39 °F
N
0.0
Wind Variable Wind from West
Gusts 0.0 mph

Today
High -- | Low -- °F
--% Chance of Precip.
Yesterday
High -- | Low -- °F
Precip. -- in
6:52 AM 8:08 PM
Waxing Crescent, 50% visible
Pressure 29.92 in
Visibility 10.0 miles
Clouds Clear
Windchill 39 °F
Dew Point 35 °F
Humidity 87%
Rainfall 0.00 in
Snow Depth 1 in , 0 in
UV 0 out of 12
Pollen 6.90 out of 12
Air Quality Not available.
Flu Activity Not available.
METAR KHLN 021053Z AUTO 25009KT 10SM CLR 16/03 A2995 RMK AO2 SLP130 T01560033

More Conditions Fewer Conditions

Pressure 29.92 in
Visibility 10.0 miles
Clouds Clear
Windchill 39 °F
Dew Point 35 °F
Humidity 87%
Rainfall 0.00 in
Snow Depth 1 in , 0 in
UV 0 out of 12
Pollen 6.90 out of 12
Air Quality Not available.
Flu Activity Not available.
METAR KHLN 021053Z AUTO 25009KT 10SM CLR 16/03 A2995 RMK AO2 SLP130 T01560033

More Conditions Fewer Conditions

10-Day Weather Forecast

Almanac

Astronomy

Sep. 02, 2014 Rise Set
Actual Time 6:52 AM MDT 8:08 PM MDT
Civil Twilight 6:20 AM MDT 8:39 PM MDT
Nautical Twilight 5:42 AM MDT 9:17 PM MDT
Astronomical Twilight 5:02 AM MDT 9:57 PM MDT
Moon 3:06 PM MDT No Moon Set
Length of Visible Light 14h 18m
Length of Day
13h 16m
Tomorrow will be 3m 14s shorter.
Waxing Crescent, 50% of the Moon is Illuminated
Today
Waxing Crescent
Sep 8
Full
Sep 15
Last Quarter
Sep 24
New
Oct 1
First Quarter

Today's Extremes

State Highs State Lows

Community

WunderPhotos

Upload Photos

1,749,621 photos uploaded!

WunderBlogs® & News

By Dr. Jeff Masters
Director of Meteorology, Weather Underground
By Kari Strenfel
Meteorologist, Weather Underground
By Christopher C. Burt
Weather Historian, Weather Underground
September 2, 2014
September 2, 2014
September 2, 2014

Nearby

Snow Depth

Station Depth Elevation
Nevada Ridge 1 in 7020 ft
Copper Bottom 0 in 5200 ft
Lubrecht Flume 1 in 4680 ft
Combination 0 in 5600 ft
Warm Springs 2 in 7800 ft

Earthquake Activity

City Distance Mag. Time & Date
No recent earthquake activity has been reported nearby.
Minimum magnitude displayed is 2.5.

Coastal Water Temperatures

Place Temperature
No Stations Reporting

Nearby Weather Stations